Terminal Aerodrome Forecast
Issued by NWS Greer, SC

Home | Current Version | Previous Version | Text Only | Print | Product List | Glossary On
Versions: 1 2 3 4 5 6 7 8 9 10 11 12 13 14 15 16 17 18 19 20 21 22 23 24 25 26 27 28 29 30 31 32 33 34 35 36 37 38 39 40 41 42 43 44 45 46 47 48 49 50
000
FTUS42 KGSP 221738
TAFAVL
TAF
KAVL 221738Z 2218/2318 15006KT P6SM OVC008
     FM222300 07009KT 4SM -SHRA OVC003 WS020/10030KT
     FM230400 15011KT 3SM +SHRA BR VCTS OVC003CB
     FM230900 16005KT 1SM -SHRA BR OVC003
     FM231500 32008KT P6SM OVC010=

USA.gov is the U.S. government's official web portal to all federal, state and local government web resources and services.